createdAt,value
2023-01-01T00:02:08.636Z,31.25
2023-01-01T00:07:13.229Z,29.25
2023-01-01T00:12:17.807Z,32.50
2023-01-01T00:17:22.436Z,40.25
2023-01-01T00:22:53.211Z,40.50
2023-01-01T00:27:52.266Z,47.75
2023-01-01T00:32:57.203Z,49.50
2023-01-01T00:38:01.702Z,43.25
2023-01-01T00:43:06.377Z,57.75
2023-01-01T00:48:10.936Z,46.00
2023-01-01T00:53:15.504Z,48.50
2023-01-01T00:58:20.643Z,48.25
2023-01-01T01:03:31.765Z,47.00
2023-01-01T01:08:36.340Z,38.25
2023-01-01T01:13:41.028Z,38.50
2023-01-01T01:18:46.078Z,43.50
2023-01-01T01:23:51.820Z,37.75
2023-01-01T01:28:56.321Z,36.75
2023-01-01T01:34:00.813Z,42.25
2023-01-01T01:39:05.678Z,40.25
2023-01-01T01:44:29.574Z,35.00
2023-01-01T01:49:34.715Z,43.75
2023-01-01T01:54:39.713Z,38.00
2023-01-01T01:59:47.018Z,38.25
2023-01-01T02:04:51.714Z,36.00
2023-01-01T02:09:56.288Z,33.25
2023-01-01T02:15:00.544Z,37.25
2023-01-01T02:20:21.060Z,32.25
2023-01-01T02:25:25.499Z,27.75
2023-01-01T02:30:31.531Z,30.25
2023-01-01T02:35:40.144Z,26.50
2023-01-01T02:40:47.336Z,28.00
2023-01-01T02:45:52.186Z,39.50
2023-01-01T02:50:59.166Z,30.00
2023-01-01T02:56:21.589Z,30.75
2023-01-01T03:01:42.390Z,26.00
2023-01-01T03:07:09.126Z,27.00
2023-01-01T03:12:42.213Z,27.00
2023-01-01T03:17:51.227Z,28.00
2023-01-01T03:22:56.431Z,25.25
2023-01-01T03:28:02.844Z,20.75
2023-01-01T03:33:11.385Z,25.75
2023-01-01T03:38:21.734Z,27.50
2023-01-01T03:43:33.984Z,27.25
2023-01-01T03:49:03.007Z,24.00
2023-01-01T03:54:14.476Z,30.00
2023-01-01T03:59:22.876Z,24.75
2023-01-01T04:04:28.267Z,25.75
2023-01-01T04:09:33.425Z,22.25
2023-01-01T04:14:37.555Z,27.00
2023-01-01T04:19:42.207Z,23.50
2023-01-01T04:24:46.310Z,26.25
2023-01-01T04:29:50.956Z,26.25
2023-01-01T04:34:55.617Z,44.25
2023-01-01T04:39:59.711Z,45.25
2023-01-01T04:45:04.085Z,44.00
2023-01-01T04:50:08.378Z,44.25
2023-01-01T04:55:12.671Z,43.50
2023-01-01T05:00:16.961Z,41.00
2023-01-01T05:05:21.210Z,33.00
2023-01-01T05:10:25.646Z,29.75
2023-01-01T05:15:29.891Z,40.25
2023-01-01T05:20:34.179Z,35.00
2023-01-01T05:25:38.460Z,28.00
2023-01-01T05:30:42.830Z,32.00
2023-01-01T05:35:48.238Z,26.50
2023-01-01T05:40:53.160Z,26.00
2023-01-01T05:46:07.823Z,31.00
2023-01-01T05:51:14.533Z,28.75
2023-01-01T05:56:18.976Z,33.25
2023-01-01T06:01:24.007Z,28.00
2023-01-01T06:06:32.124Z,30.00
2023-01-01T06:11:37.434Z,27.00
2023-01-01T06:16:41.940Z,20.50
2023-01-01T06:21:46.474Z,36.75
2023-01-01T06:26:50.707Z,25.00
2023-01-01T06:31:56.600Z,32.00
2023-01-01T06:37:06.751Z,28.00
2023-01-01T06:42:11.635Z,25.00
2023-01-01T06:47:17.017Z,29.75
2023-01-01T06:52:21.198Z,26.50
2023-01-01T06:57:26.338Z,21.00
2023-01-01T07:02:30.868Z,25.25
2023-01-01T07:07:36.161Z,21.75
2023-01-01T07:12:41.033Z,21.25
2023-01-01T07:17:45.377Z,22.75
2023-01-01T07:22:49.676Z,24.75
2023-01-01T07:27:53.975Z,25.00
2023-01-01T07:32:58.370Z,23.75
2023-01-01T07:38:02.661Z,18.75
2023-01-01T07:43:07.058Z,24.50
2023-01-01T07:48:15.443Z,19.25
2023-01-01T07:53:19.875Z,28.25
2023-01-01T07:58:24.414Z,18.00
2023-01-01T08:03:28.804Z,22.50
2023-01-01T08:08:33.068Z,24.75
2023-01-01T08:13:37.590Z,21.00
2023-01-01T08:18:42.401Z,21.50
2023-01-01T08:23:46.868Z,19.00
2023-01-01T08:28:56.887Z,22.25
2023-01-01T08:34:01.463Z,15.75
2023-01-01T08:39:05.715Z,19.75
2023-01-01T08:44:10.009Z,19.50
2023-01-01T08:49:14.340Z,21.00
2023-01-01T08:54:18.630Z,29.75
2023-01-01T08:59:22.996Z,30.75
2023-01-01T09:04:27.721Z,31.75
2023-01-01T09:09:32.113Z,28.25
2023-01-01T09:14:36.804Z,33.75
2023-01-01T09:19:41.721Z,44.75
2023-01-01T09:24:46.363Z,56.75
2023-01-01T09:29:51.067Z,60.00
2023-01-01T09:34:55.809Z,63.50
2023-01-01T09:40:00.934Z,71.00
2023-01-01T09:45:12.015Z,75.50
2023-01-01T09:50:20.452Z,92.75
2023-01-01T09:55:36.835Z,100.50
2023-01-01T10:00:46.228Z,88.25
2023-01-01T10:05:50.934Z,90.50
2023-01-01T10:11:04.500Z,100.50
2023-01-01T10:16:12.320Z,110.75
2023-01-01T10:21:19.969Z,101.50
2023-01-01T10:26:26.593Z,95.00
2023-01-01T10:31:33.673Z,93.50
2023-01-01T10:36:38.437Z,96.00
2023-01-01T10:41:42.956Z,78.25
2023-01-01T10:46:50.565Z,83.00
2023-01-01T10:51:56.285Z,77.00
2023-01-01T10:57:01.565Z,76.25
2023-01-01T11:02:24.742Z,77.50
2023-01-01T11:07:36.502Z,77.25
2023-01-01T11:18:11.434Z,72.00
2023-01-01T11:23:21.422Z,72.75
2023-01-01T11:28:26.093Z,71.50
2023-01-01T11:33:34.580Z,66.50
2023-01-01T11:38:39.290Z,62.00
2023-01-01T11:43:47.613Z,63.75
2023-01-01T11:48:52.855Z,61.75
2023-01-01T11:54:10.975Z,58.00
2023-01-01T11:59:27.320Z,60.75
2023-01-01T12:04:51.093Z,54.25
2023-01-01T12:10:11.110Z,59.50
2023-01-01T12:15:36.959Z,55.75
2023-01-01T12:20:55.684Z,57.00
2023-01-01T12:26:12.335Z,54.75
2023-01-01T12:31:17.250Z,62.50
2023-01-01T12:36:40.043Z,56.25
2023-01-01T12:41:44.856Z,62.50
2023-01-01T12:46:52.310Z,61.50
2023-01-01T12:52:00.477Z,60.00
2023-01-01T12:57:31.999Z,56.75
2023-01-01T13:02:37.463Z,61.75
2023-01-01T13:07:45.696Z,49.75
2023-01-01T13:12:51.592Z,49.50
2023-01-01T13:17:56.169Z,53.00
2023-01-01T13:23:01.346Z,49.00
2023-01-01T13:28:06.949Z,54.25
2023-01-01T13:33:32.000Z,51.00
2023-01-01T13:38:54.644Z,47.00
2023-01-01T13:44:04.887Z,49.75
2023-01-01T13:49:27.641Z,47.00
2023-01-01T13:54:50.664Z,44.00
2023-01-01T13:59:58.197Z,49.00
2023-01-01T14:05:08.545Z,38.25
2023-01-01T14:10:41.475Z,45.25
2023-01-01T14:16:05.698Z,46.50
2023-01-01T14:21:14.381Z,39.50
2023-01-01T14:26:25.239Z,45.75
2023-01-01T14:31:31.100Z,44.50
2023-01-01T14:36:37.232Z,45.00
2023-01-01T14:41:46.562Z,49.00
2023-01-01T14:46:53.817Z,48.50
2023-01-01T14:52:24.109Z,48.25
2023-01-01T14:57:33.787Z,52.00
2023-01-01T15:02:40.948Z,54.00
2023-01-01T15:07:46.105Z,57.50
2023-01-01T15:12:50.655Z,55.00
2023-01-01T15:17:56.082Z,58.00
2023-01-01T15:23:07.970Z,57.25
2023-01-01T15:28:22.510Z,63.75
2023-01-01T15:33:36.080Z,60.50
2023-01-01T15:38:45.232Z,62.75
2023-01-01T15:43:54.530Z,62.25
2023-01-01T15:49:01.793Z,60.75
2023-01-01T15:54:09.244Z,61.75
2023-01-01T15:59:16.836Z,53.75
2023-01-01T16:04:30.587Z,59.25
2023-01-01T16:09:36.449Z,59.25
2023-01-01T16:14:42.557Z,62.00
2023-01-01T16:19:49.239Z,62.25
2023-01-01T16:24:55.396Z,67.50
2023-01-01T16:30:00.525Z,63.00
2023-01-01T16:35:11.804Z,58.00
2023-01-01T16:40:17.821Z,60.25
2023-01-01T16:45:23.642Z,61.75
2023-01-01T16:50:29.760Z,56.25
2023-01-01T16:55:34.823Z,60.50
2023-01-01T17:00:39.787Z,61.75
2023-01-01T17:05:44.944Z,57.75
2023-01-01T17:10:53.491Z,60.00
2023-01-01T17:16:02.653Z,63.00
2023-01-01T17:21:08.662Z,59.75
2023-01-01T17:26:21.574Z,61.25
2023-01-01T17:31:27.187Z,65.50
2023-01-01T17:36:32.488Z,63.00
2023-01-01T17:41:37.530Z,57.25
2023-01-01T17:46:42.228Z,61.75
2023-01-01T17:51:47.359Z,62.00
2023-01-01T17:56:52.209Z,55.75
2023-01-01T18:01:57.190Z,59.25
2023-01-01T18:07:06.310Z,56.75
2023-01-01T18:12:10.947Z,61.25
2023-01-01T18:17:15.549Z,63.00
2023-01-01T18:22:20.429Z,60.25
2023-01-01T18:27:25.124Z,58.50
2023-01-01T18:32:29.749Z,54.50
2023-01-01T18:37:35.228Z,55.00
2023-01-01T18:42:41.006Z,52.25
2023-01-01T18:47:47.659Z,48.50
2023-01-01T18:53:02.504Z,50.75
2023-01-01T18:58:15.956Z,49.75
2023-01-01T19:03:29.206Z,52.25
2023-01-01T19:08:33.455Z,44.50
2023-01-01T19:13:38.586Z,50.50
2023-01-01T19:18:47.038Z,47.00
2023-01-01T19:23:52.126Z,48.75
2023-01-01T19:28:58.571Z,45.25
2023-01-01T19:34:03.137Z,49.25
2023-01-01T19:39:08.288Z,43.50
2023-01-01T19:44:12.371Z,40.25
2023-01-01T19:49:16.911Z,40.50
2023-01-01T19:54:21.407Z,38.25
2023-01-01T19:59:33.002Z,37.00
2023-01-01T20:04:38.027Z,38.25
2023-01-01T20:09:42.804Z,33.50
2023-01-01T20:14:47.080Z,39.25
2023-01-01T20:19:51.538Z,26.75
2023-01-01T20:24:56.176Z,38.50
2023-01-01T20:30:00.852Z,32.00
2023-01-01T20:35:05.608Z,35.75
2023-01-01T20:40:11.502Z,29.00
2023-01-01T20:45:16.003Z,29.50
2023-01-01T20:50:20.244Z,31.00
2023-01-01T20:55:24.773Z,28.25
2023-01-01T21:00:29.341Z,28.25
2023-01-01T21:05:33.900Z,25.00
2023-01-01T21:10:38.338Z,31.25
2023-01-01T21:15:42.519Z,26.00
2023-01-01T21:20:48.175Z,33.25
2023-01-01T21:25:53.210Z,26.75
2023-01-01T21:30:58.702Z,22.75
2023-01-01T21:36:22.961Z,22.25
2023-01-01T21:41:27.559Z,21.50
2023-01-01T21:46:35.004Z,23.75
2023-01-01T21:51:43.886Z,21.75
2023-01-01T21:56:54.030Z,22.75
2023-01-01T22:02:22.451Z,18.00
2023-01-01T22:07:57.079Z,20.00
2023-01-01T22:12:58.728Z,23.00
2023-01-01T22:18:15.628Z,24.00
2023-01-01T22:23:33.222Z,22.50
2023-01-01T22:28:43.814Z,22.25
2023-01-01T22:33:49.052Z,25.50
2023-01-01T22:38:59.234Z,26.25
2023-01-01T22:44:05.293Z,21.50
2023-01-01T22:49:32.411Z,22.25
2023-01-01T22:54:37.024Z,20.25
2023-01-01T22:59:42.753Z,21.25
2023-01-01T23:04:47.251Z,27.50
2023-01-01T23:09:51.829Z,20.50
2023-01-01T23:15:14.231Z,25.00
2023-01-01T23:20:18.592Z,22.50
2023-01-01T23:25:24.408Z,21.75
2023-01-01T23:30:28.969Z,24.00
2023-01-01T23:35:33.578Z,22.25
2023-01-01T23:40:38.125Z,24.00
2023-01-01T23:45:43.020Z,19.50
2023-01-01T23:50:48.919Z,27.75
2023-01-01T23:55:54.340Z,28.75
